sensor_id;sensor_type;location;lat;lon;timestamp;temperature;humidity
10660;DHT22;5378;53.206;13.316;2023-08-06T00:01:27;17.00;99.90
10660;DHT22;5378;53.206;13.316;2023-08-06T00:04:16;17.00;99.90
10660;DHT22;5378;53.206;13.316;2023-08-06T00:07:05;17.00;99.90
10660;DHT22;5378;53.206;13.316;2023-08-06T00:09:52;16.90;99.90
10660;DHT22;5378;53.206;13.316;2023-08-06T00:12:39;16.80;99.90
10660;DHT22;5378;53.206;13.316;2023-08-06T00:15:26;16.90;99.90
10660;DHT22;5378;53.206;13.316;2023-08-06T00:18:13;17.00;99.90
10660;DHT22;5378;53.206;13.316;2023-08-06T00:21:00;16.90;99.90
10660;DHT22;5378;53.206;13.316;2023-08-06T00:23:49;16.90;99.90
10660;DHT22;5378;53.206;13.316;2023-08-06T00:26:36;16.80;99.90
10660;DHT22;5378;53.206;13.316;2023-08-06T00:29:23;16.80;99.90
10660;DHT22;5378;53.206;13.316;2023-08-06T00:32:11;16.70;99.90
10660;DHT22;5378;53.206;13.316;2023-08-06T00:34:58;16.70;99.90
10660;DHT22;5378;53.206;13.316;2023-08-06T00:37:45;16.80;99.90
10660;DHT22;5378;53.206;13.316;2023-08-06T00:40:34;16.70;99.90
10660;DHT22;5378;53.206;13.316;2023-08-06T00:43:22;16.70;99.90
10660;DHT22;5378;53.206;13.316;2023-08-06T00:46:09;16.70;99.90
10660;DHT22;5378;53.206;13.316;2023-08-06T00:48:57;16.70;99.90
10660;DHT22;5378;53.206;13.316;2023-08-06T00:51:44;16.70;99.90
10660;DHT22;5378;53.206;13.316;2023-08-06T00:54:31;16.70;99.90
10660;DHT22;5378;53.206;13.316;2023-08-06T00:57:24;16.60;99.90
10660;DHT22;5378;53.206;13.316;2023-08-06T01:00:13;16.60;99.90
10660;DHT22;5378;53.206;13.316;2023-08-06T01:03:00;16.60;99.90
10660;DHT22;5378;53.206;13.316;2023-08-06T01:05:48;16.60;99.90
10660;DHT22;5378;53.206;13.316;2023-08-06T01:08:41;16.50;99.90
10660;DHT22;5378;53.206;13.316;2023-08-06T01:11:37;16.50;99.90
10660;DHT22;5378;53.206;13.316;2023-08-06T01:14:29;16.60;99.90
10660;DHT22;5378;53.206;13.316;2023-08-06T01:17:17;16.50;99.90
10660;DHT22;5378;53.206;13.316;2023-08-06T01:20:06;16.50;99.90
10660;DHT22;5378;53.206;13.316;2023-08-06T01:22:54;16.50;99.90
10660;DHT22;5378;53.206;13.316;2023-08-06T01:25:45;16.50;99.90
10660;DHT22;5378;53.206;13.316;2023-08-06T01:28:40;16.50;99.90
10660;DHT22;5378;53.206;13.316;2023-08-06T01:31:31;16.50;99.90
10660;DHT22;5378;53.206;13.316;2023-08-06T01:34:22;16.40;99.90
10660;DHT22;5378;53.206;13.316;2023-08-06T01:37:09;16.40;99.90
10660;DHT22;5378;53.206;13.316;2023-08-06T01:39:59;16.40;99.90
10660;DHT22;5378;53.206;13.316;2023-08-06T01:42:46;16.30;99.90
10660;DHT22;5378;53.206;13.316;2023-08-06T01:45:33;16.30;99.90
10660;DHT22;5378;53.206;13.316;2023-08-06T01:48:20;16.20;99.90
10660;DHT22;5378;53.206;13.316;2023-08-06T01:51:08;16.10;99.90
10660;DHT22;5378;53.206;13.316;2023-08-06T01:53:55;16.20;99.90
10660;DHT22;5378;53.206;13.316;2023-08-06T01:56:43;16.30;99.90
10660;DHT22;5378;53.206;13.316;2023-08-06T01:59:31;16.30;99.90
10660;DHT22;5378;53.206;13.316;2023-08-06T02:02:18;16.20;99.90
10660;DHT22;5378;53.206;13.316;2023-08-06T02:05:06;16.20;99.90
10660;DHT22;5378;53.206;13.316;2023-08-06T02:07:53;16.20;99.90
10660;DHT22;5378;53.206;13.316;2023-08-06T02:10:40;16.30;99.90
10660;DHT22;5378;53.206;13.316;2023-08-06T02:13:28;16.30;99.90
10660;DHT22;5378;53.206;13.316;2023-08-06T02:16:16;16.30;99.90
10660;DHT22;5378;53.206;13.316;2023-08-06T02:19:03;16.20;99.90
10660;DHT22;5378;53.206;13.316;2023-08-06T02:21:50;16.20;99.90
10660;DHT22;5378;53.206;13.316;2023-08-06T02:24:37;16.20;99.90
10660;DHT22;5378;53.206;13.316;2023-08-06T02:27:24;16.20;99.90
10660;DHT22;5378;53.206;13.316;2023-08-06T02:30:12;16.30;99.90
10660;DHT22;5378;53.206;13.316;2023-08-06T02:32:59;16.30;99.90
10660;DHT22;5378;53.206;13.316;2023-08-06T02:35:47;16.40;99.90
10660;DHT22;5378;53.206;13.316;2023-08-06T02:38:34;16.30;99.90
10660;DHT22;5378;53.206;13.316;2023-08-06T02:41:21;16.30;99.90
10660;DHT22;5378;53.206;13.316;2023-08-06T02:44:08;16.40;99.90
10660;DHT22;5378;53.206;13.316;2023-08-06T02:46:57;16.40;99.90
10660;DHT22;5378;53.206;13.316;2023-08-06T02:49:44;16.40;99.90
10660;DHT22;5378;53.206;13.316;2023-08-06T02:52:31;16.40;99.90
10660;DHT22;5378;53.206;13.316;2023-08-06T02:55:19;16.30;99.90
10660;DHT22;5378;53.206;13.316;2023-08-06T02:58:07;16.30;99.90
10660;DHT22;5378;53.206;13.316;2023-08-06T03:00:59;16.30;99.90
10660;DHT22;5378;53.206;13.316;2023-08-06T03:03:52;16.20;99.90
10660;DHT22;5378;53.206;13.316;2023-08-06T03:06:45;16.20;99.90
10660;DHT22;5378;53.206;13.316;2023-08-06T03:09:33;16.10;99.90
10660;DHT22;5378;53.206;13.316;2023-08-06T03:12:20;16.20;99.90
10660;DHT22;5378;53.206;13.316;2023-08-06T03:15:08;16.20;99.90
10660;DHT22;5378;53.206;13.316;2023-08-06T03:17:56;16.20;99.90
10660;DHT22;5378;53.206;13.316;2023-08-06T03:20:46;16.30;99.90
10660;DHT22;5378;53.206;13.316;2023-08-06T03:23:34;16.30;99.90
10660;DHT22;5378;53.206;13.316;2023-08-06T03:26:21;16.30;99.90
10660;DHT22;5378;53.206;13.316;2023-08-06T03:29:09;16.30;99.90
10660;DHT22;5378;53.206;13.316;2023-08-06T03:31:57;16.30;99.90
10660;DHT22;5378;53.206;13.316;2023-08-06T03:34:44;16.30;99.90
10660;DHT22;5378;53.206;13.316;2023-08-06T03:37:32;16.30;99.90
10660;DHT22;5378;53.206;13.316;2023-08-06T03:40:20;16.20;99.90
10660;DHT22;5378;53.206;13.316;2023-08-06T03:43:07;16.10;99.90
10660;DHT22;5378;53.206;13.316;2023-08-06T03:45:55;16.10;99.90
10660;DHT22;5378;53.206;13.316;2023-08-06T03:48:42;16.00;99.90
10660;DHT22;5378;53.206;13.316;2023-08-06T03:51:31;16.00;99.90
10660;DHT22;5378;53.206;13.316;2023-08-06T03:54:21;16.00;99.90
10660;DHT22;5378;53.206;13.316;2023-08-06T03:57:08;16.00;99.90
10660;DHT22;5378;53.206;13.316;2023-08-06T03:59:55;16.00;99.90
10660;DHT22;5378;53.206;13.316;2023-08-06T04:02:44;16.10;99.90
10660;DHT22;5378;53.206;13.316;2023-08-06T04:05:32;16.00;99.90
10660;DHT22;5378;53.206;13.316;2023-08-06T04:08:19;16.00;99.90
10660;DHT22;5378;53.206;13.316;2023-08-06T04:11:08;16.00;99.90
10660;DHT22;5378;53.206;13.316;2023-08-06T04:13:55;16.00;99.90
10660;DHT22;5378;53.206;13.316;2023-08-06T04:16:43;16.10;99.90
10660;DHT22;5378;53.206;13.316;2023-08-06T04:19:30;16.10;99.90
10660;DHT22;5378;53.206;13.316;2023-08-06T04:22:17;16.20;99.90
10660;DHT22;5378;53.206;13.316;2023-08-06T04:25:05;16.10;99.90
10660;DHT22;5378;53.206;13.316;2023-08-06T04:27:54;16.00;99.90
10660;DHT22;5378;53.206;13.316;2023-08-06T04:30:42;16.00;99.90
10660;DHT22;5378;53.206;13.316;2023-08-06T04:33:29;16.10;99.90
10660;DHT22;5378;53.206;13.316;2023-08-06T04:36:19;16.10;99.90
10660;DHT22;5378;53.206;13.316;2023-08-06T04:39:06;16.20;99.90
10660;DHT22;5378;53.206;13.316;2023-08-06T04:41:53;16.20;99.90
10660;DHT22;5378;53.206;13.316;2023-08-06T04:44:41;16.30;99.90
10660;DHT22;5378;53.206;13.316;2023-08-06T04:47:28;16.30;99.90
10660;DHT22;5378;53.206;13.316;2023-08-06T04:50:16;16.30;99.90
10660;DHT22;5378;53.206;13.316;2023-08-06T04:53:03;16.30;99.90
10660;DHT22;5378;53.206;13.316;2023-08-06T04:55:50;16.30;99.90
10660;DHT22;5378;53.206;13.316;2023-08-06T04:58:37;16.30;99.90
10660;DHT22;5378;53.206;13.316;2023-08-06T05:01:26;16.20;99.90
10660;DHT22;5378;53.206;13.316;2023-08-06T05:04:14;16.20;99.90
10660;DHT22;5378;53.206;13.316;2023-08-06T05:07:01;16.30;99.90
10660;DHT22;5378;53.206;13.316;2023-08-06T05:09:48;16.30;99.90
10660;DHT22;5378;53.206;13.316;2023-08-06T05:12:35;16.40;99.90
10660;DHT22;5378;53.206;13.316;2023-08-06T05:15:22;16.50;99.90
10660;DHT22;5378;53.206;13.316;2023-08-06T05:18:12;16.50;99.90
10660;DHT22;5378;53.206;13.316;2023-08-06T05:20:59;16.60;99.90
10660;DHT22;5378;53.206;13.316;2023-08-06T05:23:46;16.60;99.90
10660;DHT22;5378;53.206;13.316;2023-08-06T05:26:33;16.50;99.90
10660;DHT22;5378;53.206;13.316;2023-08-06T05:29:21;16.50;99.90
10660;DHT22;5378;53.206;13.316;2023-08-06T05:32:08;16.50;99.90
10660;DHT22;5378;53.206;13.316;2023-08-06T05:34:56;16.50;99.90
10660;DHT22;5378;53.206;13.316;2023-08-06T05:37:43;16.40;99.90
10660;DHT22;5378;53.206;13.316;2023-08-06T05:40:33;16.30;99.90
10660;DHT22;5378;53.206;13.316;2023-08-06T05:43:20;16.50;99.90
10660;DHT22;5378;53.206;13.316;2023-08-06T05:46:07;16.50;99.90
10660;DHT22;5378;53.206;13.316;2023-08-06T05:48:54;16.60;99.90
10660;DHT22;5378;53.206;13.316;2023-08-06T05:51:42;16.50;99.90
10660;DHT22;5378;53.206;13.316;2023-08-06T05:54:29;16.50;99.90
10660;DHT22;5378;53.206;13.316;2023-08-06T05:57:17;16.50;99.90
10660;DHT22;5378;53.206;13.316;2023-08-06T06:00:05;16.50;99.90
10660;DHT22;5378;53.206;13.316;2023-08-06T06:02:58;16.50;99.90
10660;DHT22;5378;53.206;13.316;2023-08-06T06:05:45;16.60;99.90
10660;DHT22;5378;53.206;13.316;2023-08-06T06:08:33;16.60;99.90
10660;DHT22;5378;53.206;13.316;2023-08-06T06:11:21;16.70;99.90
10660;DHT22;5378;53.206;13.316;2023-08-06T06:14:08;16.60;99.90
10660;DHT22;5378;53.206;13.316;2023-08-06T06:16:55;16.70;99.90
10660;DHT22;5378;53.206;13.316;2023-08-06T06:19:42;16.80;99.90
10660;DHT22;5378;53.206;13.316;2023-08-06T06:22:30;17.00;99.90
10660;DHT22;5378;53.206;13.316;2023-08-06T06:25:18;17.10;99.90
10660;DHT22;5378;53.206;13.316;2023-08-06T06:28:05;17.30;99.90
10660;DHT22;5378;53.206;13.316;2023-08-06T06:30:52;17.30;99.90
10660;DHT22;5378;53.206;13.316;2023-08-06T06:33:39;17.50;99.90
10660;DHT22;5378;53.206;13.316;2023-08-06T06:36:26;17.60;99.90
10660;DHT22;5378;53.206;13.316;2023-08-06T06:39:15;17.80;99.90
10660;DHT22;5378;53.206;13.316;2023-08-06T06:42:05;18.00;99.90
10660;DHT22;5378;53.206;13.316;2023-08-06T06:44:56;18.10;99.90
10660;DHT22;5378;53.206;13.316;2023-08-06T06:47:43;18.10;99.90
10660;DHT22;5378;53.206;13.316;2023-08-06T06:50:30;18.20;99.90
10660;DHT22;5378;53.206;13.316;2023-08-06T06:53:17;18.40;99.90
10660;DHT22;5378;53.206;13.316;2023-08-06T06:56:05;18.50;99.90
10660;DHT22;5378;53.206;13.316;2023-08-06T06:58:53;18.60;99.90
10660;DHT22;5378;53.206;13.316;2023-08-06T07:01:41;18.60;99.90
10660;DHT22;5378;53.206;13.316;2023-08-06T07:04:28;18.80;99.90
10660;DHT22;5378;53.206;13.316;2023-08-06T07:07:14;18.90;99.90
10660;DHT22;5378;53.206;13.316;2023-08-06T07:10:02;18.90;99.90
10660;DHT22;5378;53.206;13.316;2023-08-06T07:12:49;19.00;99.90
10660;DHT22;5378;53.206;13.316;2023-08-06T07:15:37;19.10;99.90
10660;DHT22;5378;53.206;13.316;2023-08-06T07:18:25;19.20;99.90
10660;DHT22;5378;53.206;13.316;2023-08-06T07:21:12;19.20;99.90
10660;DHT22;5378;53.206;13.316;2023-08-06T07:23:59;19.30;99.90
10660;DHT22;5378;53.206;13.316;2023-08-06T07:26:46;19.40;99.90
10660;DHT22;5378;53.206;13.316;2023-08-06T07:29:33;19.50;99.90
10660;DHT22;5378;53.206;13.316;2023-08-06T07:32:22;19.60;99.90
10660;DHT22;5378;53.206;13.316;2023-08-06T07:35:09;19.60;99.90
10660;DHT22;5378;53.206;13.316;2023-08-06T07:37:58;19.60;99.90
10660;DHT22;5378;53.206;13.316;2023-08-06T07:40:45;19.60;99.90
10660;DHT22;5378;53.206;13.316;2023-08-06T07:43:32;19.40;99.90
10660;DHT22;5378;53.206;13.316;2023-08-06T07:46:19;19.20;99.90
10660;DHT22;5378;53.206;13.316;2023-08-06T07:49:09;19.00;99.90
10660;DHT22;5378;53.206;13.316;2023-08-06T07:51:56;18.90;99.90
10660;DHT22;5378;53.206;13.316;2023-08-06T07:54:43;19.00;99.90
10660;DHT22;5378;53.206;13.316;2023-08-06T07:57:31;18.80;99.90
10660;DHT22;5378;53.206;13.316;2023-08-06T08:00:18;18.70;99.90
10660;DHT22;5378;53.206;13.316;2023-08-06T08:03:05;18.80;99.90
10660;DHT22;5378;53.206;13.316;2023-08-06T08:05:55;18.90;99.90
10660;DHT22;5378;53.206;13.316;2023-08-06T08:08:44;18.80;99.90
10660;DHT22;5378;53.206;13.316;2023-08-06T08:11:31;18.80;99.90
10660;DHT22;5378;53.206;13.316;2023-08-06T08:14:18;18.70;99.90
10660;DHT22;5378;53.206;13.316;2023-08-06T08:17:05;18.60;99.90
10660;DHT22;5378;53.206;13.316;2023-08-06T08:19:53;18.40;99.90
10660;DHT22;5378;53.206;13.316;2023-08-06T08:22:41;18.40;99.90
10660;DHT22;5378;53.206;13.316;2023-08-06T08:25:28;18.30;99.90
10660;DHT22;5378;53.206;13.316;2023-08-06T08:28:18;18.40;99.90
10660;DHT22;5378;53.206;13.316;2023-08-06T08:31:08;18.50;99.90
10660;DHT22;5378;53.206;13.316;2023-08-06T08:33:54;18.60;99.90
10660;DHT22;5378;53.206;13.316;2023-08-06T08:36:43;18.60;99.90
10660;DHT22;5378;53.206;13.316;2023-08-06T08:39:34;18.60;99.90
10660;DHT22;5378;53.206;13.316;2023-08-06T08:42:21;18.80;99.90
10660;DHT22;5378;53.206;13.316;2023-08-06T08:45:14;18.90;99.90
10660;DHT22;5378;53.206;13.316;2023-08-06T08:48:01;19.10;99.90
10660;DHT22;5378;53.206;13.316;2023-08-06T08:50:49;19.30;99.90
10660;DHT22;5378;53.206;13.316;2023-08-06T08:53:37;19.40;99.90
10660;DHT22;5378;53.206;13.316;2023-08-06T08:56:26;19.50;99.90
10660;DHT22;5378;53.206;13.316;2023-08-06T08:59:14;19.60;99.90
10660;DHT22;5378;53.206;13.316;2023-08-06T09:02:01;19.50;99.90
10660;DHT22;5378;53.206;13.316;2023-08-06T09:04:49;19.50;99.90
10660;DHT22;5378;53.206;13.316;2023-08-06T09:07:41;19.60;99.90
10660;DHT22;5378;53.206;13.316;2023-08-06T09:10:29;19.70;99.90
10660;DHT22;5378;53.206;13.316;2023-08-06T09:13:18;19.70;99.90
10660;DHT22;5378;53.206;13.316;2023-08-06T09:16:06;19.70;99.90
10660;DHT22;5378;53.206;13.316;2023-08-06T09:18:53;19.70;99.90
10660;DHT22;5378;53.206;13.316;2023-08-06T09:21:40;19.70;99.90
10660;DHT22;5378;53.206;13.316;2023-08-06T09:24:27;19.70;99.90
10660;DHT22;5378;53.206;13.316;2023-08-06T09:27:15;19.70;99.90
10660;DHT22;5378;53.206;13.316;2023-08-06T09:30:05;19.70;99.90
10660;DHT22;5378;53.206;13.316;2023-08-06T09:32:52;19.80;99.90
10660;DHT22;5378;53.206;13.316;2023-08-06T09:35:40;19.70;99.90
10660;DHT22;5378;53.206;13.316;2023-08-06T09:38:37;19.80;99.90
10660;DHT22;5378;53.206;13.316;2023-08-06T09:41:28;19.70;99.90
10660;DHT22;5378;53.206;13.316;2023-08-06T09:44:16;19.70;99.90
10660;DHT22;5378;53.206;13.316;2023-08-06T09:47:05;19.70;99.90
10660;DHT22;5378;53.206;13.316;2023-08-06T09:49:52;19.80;99.90
10660;DHT22;5378;53.206;13.316;2023-08-06T09:52:40;19.80;99.90
10660;DHT22;5378;53.206;13.316;2023-08-06T09:55:28;20.00;99.90
10660;DHT22;5378;53.206;13.316;2023-08-06T09:58:15;20.10;99.90
10660;DHT22;5378;53.206;13.316;2023-08-06T10:01:04;20.00;99.90
10660;DHT22;5378;53.206;13.316;2023-08-06T10:03:53;19.90;99.90
10660;DHT22;5378;53.206;13.316;2023-08-06T10:06:41;19.80;99.90
10660;DHT22;5378;53.206;13.316;2023-08-06T10:09:28;19.80;99.90
10660;DHT22;5378;53.206;13.316;2023-08-06T10:12:16;19.90;99.90
10660;DHT22;5378;53.206;13.316;2023-08-06T10:15:10;20.00;99.90
10660;DHT22;5378;53.206;13.316;2023-08-06T10:17:59;20.10;99.90
10660;DHT22;5378;53.206;13.316;2023-08-06T10:20:49;20.00;99.90
10660;DHT22;5378;53.206;13.316;2023-08-06T10:23:36;19.90;99.90
10660;DHT22;5378;53.206;13.316;2023-08-06T10:26:28;19.90;99.90
10660;DHT22;5378;53.206;13.316;2023-08-06T10:29:37;19.90;99.90
10660;DHT22;5378;53.206;13.316;2023-08-06T10:32:46;19.90;99.90
10660;DHT22;5378;53.206;13.316;2023-08-06T10:35:35;19.90;99.90
10660;DHT22;5378;53.206;13.316;2023-08-06T10:38:25;19.80;99.90
10660;DHT22;5378;53.206;13.316;2023-08-06T10:41:23;19.90;99.90
10660;DHT22;5378;53.206;13.316;2023-08-06T10:44:11;20.00;99.90
10660;DHT22;5378;53.206;13.316;2023-08-06T10:47:26;20.00;99.90
10660;DHT22;5378;53.206;13.316;2023-08-06T10:50:14;19.80;99.90
10660;DHT22;5378;53.206;13.316;2023-08-06T10:53:05;19.80;99.90
10660;DHT22;5378;53.206;13.316;2023-08-06T10:55:55;20.00;99.90
10660;DHT22;5378;53.206;13.316;2023-08-06T10:58:42;20.10;99.90
10660;DHT22;5378;53.206;13.316;2023-08-06T11:01:29;20.10;99.90
10660;DHT22;5378;53.206;13.316;2023-08-06T11:04:16;20.20;99.90
10660;DHT22;5378;53.206;13.316;2023-08-06T11:07:06;20.30;99.90
10660;DHT22;5378;53.206;13.316;2023-08-06T11:10:01;20.30;99.90
10660;DHT22;5378;53.206;13.316;2023-08-06T11:12:50;20.10;99.90
10660;DHT22;5378;53.206;13.316;2023-08-06T11:15:37;20.00;99.90
10660;DHT22;5378;53.206;13.316;2023-08-06T11:18:24;19.80;99.90
10660;DHT22;5378;53.206;13.316;2023-08-06T11:21:11;19.90;99.90
10660;DHT22;5378;53.206;13.316;2023-08-06T11:23:58;19.90;99.90
10660;DHT22;5378;53.206;13.316;2023-08-06T11:26:46;19.90;99.90
10660;DHT22;5378;53.206;13.316;2023-08-06T11:29:38;19.90;99.90
10660;DHT22;5378;53.206;13.316;2023-08-06T11:32:25;19.80;99.90
10660;DHT22;5378;53.206;13.316;2023-08-06T11:35:14;19.90;99.90
10660;DHT22;5378;53.206;13.316;2023-08-06T11:38:01;19.90;99.90
10660;DHT22;5378;53.206;13.316;2023-08-06T11:40:50;19.80;99.90
10660;DHT22;5378;53.206;13.316;2023-08-06T11:43:37;19.70;99.90
10660;DHT22;5378;53.206;13.316;2023-08-06T11:46:26;19.70;99.90
10660;DHT22;5378;53.206;13.316;2023-08-06T11:49:13;19.80;99.90
10660;DHT22;5378;53.206;13.316;2023-08-06T11:52:00;19.80;99.90
10660;DHT22;5378;53.206;13.316;2023-08-06T11:54:59;19.70;99.90
10660;DHT22;5378;53.206;13.316;2023-08-06T11:57:47;19.60;99.90
10660;DHT22;5378;53.206;13.316;2023-08-06T12:00:34;19.70;99.90
10660;DHT22;5378;53.206;13.316;2023-08-06T12:03:24;19.70;99.90
10660;DHT22;5378;53.206;13.316;2023-08-06T12:06:13;19.60;99.90
10660;DHT22;5378;53.206;13.316;2023-08-06T12:09:00;19.70;99.90
10660;DHT22;5378;53.206;13.316;2023-08-06T12:11:47;19.60;99.90
10660;DHT22;5378;53.206;13.316;2023-08-06T12:14:36;19.40;99.90
10660;DHT22;5378;53.206;13.316;2023-08-06T12:17:24;19.40;99.90
10660;DHT22;5378;53.206;13.316;2023-08-06T12:20:12;19.30;99.90
10660;DHT22;5378;53.206;13.316;2023-08-06T12:23:00;19.30;99.90
10660;DHT22;5378;53.206;13.316;2023-08-06T12:25:47;19.30;99.90
10660;DHT22;5378;53.206;13.316;2023-08-06T12:28:35;19.30;99.90
10660;DHT22;5378;53.206;13.316;2023-08-06T12:31:22;19.40;99.90
10660;DHT22;5378;53.206;13.316;2023-08-06T12:34:09;19.50;99.90
10660;DHT22;5378;53.206;13.316;2023-08-06T12:36:58;19.60;99.90
10660;DHT22;5378;53.206;13.316;2023-08-06T12:39:45;19.50;99.90
10660;DHT22;5378;53.206;13.316;2023-08-06T12:42:32;19.50;99.90
10660;DHT22;5378;53.206;13.316;2023-08-06T12:45:19;19.50;99.90
10660;DHT22;5378;53.206;13.316;2023-08-06T12:48:06;19.50;99.90
10660;DHT22;5378;53.206;13.316;2023-08-06T12:50:53;19.50;99.90
10660;DHT22;5378;53.206;13.316;2023-08-06T12:53:42;19.50;99.90
10660;DHT22;5378;53.206;13.316;2023-08-06T12:56:29;19.50;99.90
10660;DHT22;5378;53.206;13.316;2023-08-06T12:59:17;19.40;99.90
10660;DHT22;5378;53.206;13.316;2023-08-06T13:02:04;19.30;99.90
10660;DHT22;5378;53.206;13.316;2023-08-06T13:04:51;19.20;99.90
10660;DHT22;5378;53.206;13.316;2023-08-06T13:07:38;19.20;99.90
10660;DHT22;5378;53.206;13.316;2023-08-06T13:10:26;19.10;99.90
10660;DHT22;5378;53.206;13.316;2023-08-06T13:13:15;19.10;99.90
10660;DHT22;5378;53.206;13.316;2023-08-06T13:16:02;19.00;99.90
10660;DHT22;5378;53.206;13.316;2023-08-06T13:18:49;19.00;99.90
10660;DHT22;5378;53.206;13.316;2023-08-06T13:21:59;18.90;99.90
10660;DHT22;5378;53.206;13.316;2023-08-06T13:24:47;18.80;99.90
10660;DHT22;5378;53.206;13.316;2023-08-06T13:27:36;18.80;99.90
10660;DHT22;5378;53.206;13.316;2023-08-06T13:30:23;18.70;99.90
10660;DHT22;5378;53.206;13.316;2023-08-06T13:33:11;18.80;99.90
10660;DHT22;5378;53.206;13.316;2023-08-06T13:35:58;18.80;99.90
10660;DHT22;5378;53.206;13.316;2023-08-06T13:38:45;18.90;99.90
10660;DHT22;5378;53.206;13.316;2023-08-06T13:41:32;18.90;99.90
10660;DHT22;5378;53.206;13.316;2023-08-06T13:44:21;18.80;99.90
10660;DHT22;5378;53.206;13.316;2023-08-06T13:47:08;18.80;99.90
10660;DHT22;5378;53.206;13.316;2023-08-06T13:49:55;18.60;99.90
10660;DHT22;5378;53.206;13.316;2023-08-06T13:52:42;18.40;99.90
10660;DHT22;5378;53.206;13.316;2023-08-06T13:55:29;18.40;99.90
10660;DHT22;5378;53.206;13.316;2023-08-06T13:58:16;18.30;99.90
10660;DHT22;5378;53.206;13.316;2023-08-06T14:01:04;18.30;99.90
10660;DHT22;5378;53.206;13.316;2023-08-06T14:03:51;18.20;99.90
10660;DHT22;5378;53.206;13.316;2023-08-06T14:06:39;18.20;99.90
10660;DHT22;5378;53.206;13.316;2023-08-06T14:09:26;18.20;99.90
10660;DHT22;5378;53.206;13.316;2023-08-06T14:12:14;18.20;99.90
10660;DHT22;5378;53.206;13.316;2023-08-06T14:15:01;17.90;99.90
10660;DHT22;5378;53.206;13.316;2023-08-06T14:17:50;17.80;99.90
10660;DHT22;5378;53.206;13.316;2023-08-06T14:20:38;17.90;99.90
10660;DHT22;5378;53.206;13.316;2023-08-06T14:23:25;18.00;99.90
10660;DHT22;5378;53.206;13.316;2023-08-06T14:26:12;17.90;99.90
10660;DHT22;5378;53.206;13.316;2023-08-06T14:29:01;17.90;99.90
10660;DHT22;5378;53.206;13.316;2023-08-06T14:31:50;17.90;99.90
10660;DHT22;5378;53.206;13.316;2023-08-06T14:34:38;17.90;99.90
10660;DHT22;5378;53.206;13.316;2023-08-06T14:37:26;17.90;99.90
10660;DHT22;5378;53.206;13.316;2023-08-06T14:40:13;17.90;99.90
10660;DHT22;5378;53.206;13.316;2023-08-06T14:43:00;17.90;99.90
10660;DHT22;5378;53.206;13.316;2023-08-06T14:45:47;17.90;99.90
10660;DHT22;5378;53.206;13.316;2023-08-06T14:48:34;17.90;99.90
10660;DHT22;5378;53.206;13.316;2023-08-06T14:51:23;18.00;99.90
10660;DHT22;5378;53.206;13.316;2023-08-06T14:54:10;17.90;99.90
10660;DHT22;5378;53.206;13.316;2023-08-06T14:56:57;17.90;99.90
10660;DHT22;5378;53.206;13.316;2023-08-06T14:59:44;17.90;99.90
10660;DHT22;5378;53.206;13.316;2023-08-06T15:02:31;17.80;99.90
10660;DHT22;5378;53.206;13.316;2023-08-06T15:05:18;17.70;99.90
10660;DHT22;5378;53.206;13.316;2023-08-06T15:08:06;17.70;99.90
10660;DHT22;5378;53.206;13.316;2023-08-06T15:10:53;17.70;99.90
10660;DHT22;5378;53.206;13.316;2023-08-06T15:13:41;17.80;99.90
10660;DHT22;5378;53.206;13.316;2023-08-06T15:16:28;17.70;99.90
10660;DHT22;5378;53.206;13.316;2023-08-06T15:19:15;17.80;99.90
10660;DHT22;5378;53.206;13.316;2023-08-06T15:22:02;17.80;99.90
10660;DHT22;5378;53.206;13.316;2023-08-06T15:24:50;17.90;99.90
10660;DHT22;5378;53.206;13.316;2023-08-06T15:27:37;17.90;99.90
10660;DHT22;5378;53.206;13.316;2023-08-06T15:30:25;17.90;99.90
10660;DHT22;5378;53.206;13.316;2023-08-06T15:33:12;17.90;99.90
10660;DHT22;5378;53.206;13.316;2023-08-06T15:36:00;17.90;99.90
10660;DHT22;5378;53.206;13.316;2023-08-06T15:38:47;17.90;99.90
10660;DHT22;5378;53.206;13.316;2023-08-06T15:41:35;17.90;99.90
10660;DHT22;5378;53.206;13.316;2023-08-06T15:44:22;18.00;99.90
10660;DHT22;5378;53.206;13.316;2023-08-06T15:47:09;17.90;99.90
10660;DHT22;5378;53.206;13.316;2023-08-06T15:49:57;17.80;99.90
10660;DHT22;5378;53.206;13.316;2023-08-06T15:52:44;17.80;99.90
10660;DHT22;5378;53.206;13.316;2023-08-06T15:55:31;17.80;99.90
10660;DHT22;5378;53.206;13.316;2023-08-06T15:58:21;17.80;99.90
10660;DHT22;5378;53.206;13.316;2023-08-06T16:01:08;17.70;99.90
10660;DHT22;5378;53.206;13.316;2023-08-06T16:03:55;17.60;99.90
10660;DHT22;5378;53.206;13.316;2023-08-06T16:06:42;17.60;99.90
10660;DHT22;5378;53.206;13.316;2023-08-06T16:09:29;17.60;99.90
10660;DHT22;5378;53.206;13.316;2023-08-06T16:12:16;17.60;99.90
10660;DHT22;5378;53.206;13.316;2023-08-06T16:15:07;17.50;99.90
10660;DHT22;5378;53.206;13.316;2023-08-06T16:17:54;17.50;99.90
10660;DHT22;5378;53.206;13.316;2023-08-06T16:20:42;17.50;99.90
10660;DHT22;5378;53.206;13.316;2023-08-06T16:23:29;17.50;99.90
10660;DHT22;5378;53.206;13.316;2023-08-06T16:26:16;17.40;99.90
10660;DHT22;5378;53.206;13.316;2023-08-06T16:29:03;17.50;99.90
10660;DHT22;5378;53.206;13.316;2023-08-06T16:31:52;17.50;99.90
10660;DHT22;5378;53.206;13.316;2023-08-06T16:34:39;17.40;99.90
10660;DHT22;5378;53.206;13.316;2023-08-06T16:37:26;17.30;99.90
10660;DHT22;5378;53.206;13.316;2023-08-06T16:40:13;17.20;99.90
10660;DHT22;5378;53.206;13.316;2023-08-06T16:43:01;17.20;99.90
10660;DHT22;5378;53.206;13.316;2023-08-06T16:45:48;17.20;99.90
10660;DHT22;5378;53.206;13.316;2023-08-06T16:48:37;17.20;99.90
10660;DHT22;5378;53.206;13.316;2023-08-06T16:51:24;17.10;99.90
10660;DHT22;5378;53.206;13.316;2023-08-06T16:54:11;17.10;99.90
10660;DHT22;5378;53.206;13.316;2023-08-06T16:56:58;17.10;99.90
10660;DHT22;5378;53.206;13.316;2023-08-06T16:59:47;17.00;99.90
10660;DHT22;5378;53.206;13.316;2023-08-06T17:02:34;17.00;99.90
10660;DHT22;5378;53.206;13.316;2023-08-06T17:05:23;16.90;99.90
10660;DHT22;5378;53.206;13.316;2023-08-06T17:08:10;16.80;99.90
10660;DHT22;5378;53.206;13.316;2023-08-06T17:10:57;16.50;99.90
10660;DHT22;5378;53.206;13.316;2023-08-06T17:13:44;16.40;99.90
10660;DHT22;5378;53.206;13.316;2023-08-06T17:16:31;16.30;99.90
10660;DHT22;5378;53.206;13.316;2023-08-06T17:19:18;16.20;99.90
10660;DHT22;5378;53.206;13.316;2023-08-06T17:22:06;16.10;99.90
10660;DHT22;5378;53.206;13.316;2023-08-06T17:24:53;16.00;99.90
10660;DHT22;5378;53.206;13.316;2023-08-06T17:27:40;15.80;99.90
10660;DHT22;5378;53.206;13.316;2023-08-06T17:30:27;15.60;99.90
10660;DHT22;5378;53.206;13.316;2023-08-06T17:33:15;15.80;99.90
10660;DHT22;5378;53.206;13.316;2023-08-06T17:36:03;15.80;99.90
10660;DHT22;5378;53.206;13.316;2023-08-06T17:38:51;15.80;99.90
10660;DHT22;5378;53.206;13.316;2023-08-06T17:41:38;15.90;99.90